sensor_id;sensor_type;location;lat;lon;timestamp;P1;durP1;ratioP1;P2;durP2;ratioP2
55270;SDS011;41132;47.162;9.470;2023-07-24T00:01:21;12.52;;;7.55;;
55270;SDS011;41132;47.162;9.470;2023-07-24T00:03:47;10.75;;;6.97;;
55270;SDS011;41132;47.162;9.470;2023-07-24T00:06:12;12.05;;;7.13;;
55270;SDS011;41132;47.162;9.470;2023-07-24T00:08:37;10.57;;;6.55;;
55270;SDS011;41132;47.162;9.470;2023-07-24T00:11:06;15.27;;;7.78;;
55270;SDS011;41132;47.162;9.470;2023-07-24T00:13:32;11.32;;;7.50;;
55270;SDS011;41132;47.162;9.470;2023-07-24T00:15:57;12.52;;;7.28;;
55270;SDS011;41132;47.162;9.470;2023-07-24T00:18:23;10.07;;;6.68;;
55270;SDS011;41132;47.162;9.470;2023-07-24T00:20:48;9.98;;;6.20;;
55270;SDS011;41132;47.162;9.470;2023-07-24T00:23:14;11.95;;;6.95;;
55270;SDS011;41132;47.162;9.470;2023-07-24T00:25:39;13.32;;;7.15;;
55270;SDS011;41132;47.162;9.470;2023-07-24T00:28:04;11.05;;;7.32;;
55270;SDS011;41132;47.162;9.470;2023-07-24T00:30:30;11.23;;;7.13;;
55270;SDS011;41132;47.162;9.470;2023-07-24T00:32:55;11.38;;;6.78;;
55270;SDS011;41132;47.162;9.470;2023-07-24T00:35:20;9.65;;;6.15;;
55270;SDS011;41132;47.162;9.470;2023-07-24T00:37:46;9.77;;;6.13;;
55270;SDS011;41132;47.162;9.470;2023-07-24T00:40:11;11.40;;;7.03;;
55270;SDS011;41132;47.162;9.470;2023-07-24T00:42:37;10.77;;;6.85;;
55270;SDS011;41132;47.162;9.470;2023-07-24T00:45:02;11.18;;;7.10;;
55270;SDS011;41132;47.162;9.470;2023-07-24T00:47:28;11.40;;;7.13;;
55270;SDS011;41132;47.162;9.470;2023-07-24T00:49:53;11.77;;;7.35;;
55270;SDS011;41132;47.162;9.470;2023-07-24T00:52:20;11.38;;;6.78;;
55270;SDS011;41132;47.162;9.470;2023-07-24T00:54:46;11.13;;;7.38;;
55270;SDS011;41132;47.162;9.470;2023-07-24T00:57:11;11.38;;;7.18;;
55270;SDS011;41132;47.162;9.470;2023-07-24T00:59:37;10.80;;;7.53;;
55270;SDS011;41132;47.162;9.470;2023-07-24T01:02:03;11.00;;;7.15;;
55270;SDS011;41132;47.162;9.470;2023-07-24T01:04:29;10.95;;;6.95;;
55270;SDS011;41132;47.162;9.470;2023-07-24T01:06:54;11.80;;;6.63;;
55270;SDS011;41132;47.162;9.470;2023-07-24T01:09:20;11.98;;;6.80;;
55270;SDS011;41132;47.162;9.470;2023-07-24T01:11:50;12.15;;;7.15;;
55270;SDS011;41132;47.162;9.470;2023-07-24T01:14:23;14.32;;;7.30;;
55270;SDS011;41132;47.162;9.470;2023-07-24T01:16:52;12.10;;;7.28;;
55270;SDS011;41132;47.162;9.470;2023-07-24T01:19:36;11.13;;;6.55;;
55270;SDS011;41132;47.162;9.470;2023-07-24T01:27:26;11.85;;;6.93;;
55270;SDS011;41132;47.162;9.470;2023-07-24T01:29:52;11.25;;;7.05;;
55270;SDS011;41132;47.162;9.470;2023-07-24T01:32:17;10.05;;;6.53;;
55270;SDS011;41132;47.162;9.470;2023-07-24T01:34:44;10.55;;;6.95;;
55270;SDS011;41132;47.162;9.470;2023-07-24T01:37:10;11.98;;;7.45;;
55270;SDS011;41132;47.162;9.470;2023-07-24T01:39:37;10.68;;;6.65;;
55270;SDS011;41132;47.162;9.470;2023-07-24T01:42:05;9.82;;;6.90;;
55270;SDS011;41132;47.162;9.470;2023-07-24T01:44:31;11.93;;;7.30;;
55270;SDS011;41132;47.162;9.470;2023-07-24T01:46:56;12.73;;;6.80;;
55270;SDS011;41132;47.162;9.470;2023-07-24T01:49:22;12.82;;;7.13;;
55270;SDS011;41132;47.162;9.470;2023-07-24T01:51:47;11.55;;;6.63;;
55270;SDS011;41132;47.162;9.470;2023-07-24T01:54:12;12.90;;;7.30;;
55270;SDS011;41132;47.162;9.470;2023-07-24T01:56:39;11.38;;;6.95;;
55270;SDS011;41132;47.162;9.470;2023-07-24T01:59:04;12.27;;;6.90;;
55270;SDS011;41132;47.162;9.470;2023-07-24T02:01:30;14.27;;;7.05;;
55270;SDS011;41132;47.162;9.470;2023-07-24T02:03:55;11.02;;;6.50;;
55270;SDS011;41132;47.162;9.470;2023-07-24T02:06:21;11.48;;;7.45;;
55270;SDS011;41132;47.162;9.470;2023-07-24T02:08:46;9.77;;;6.28;;
55270;SDS011;41132;47.162;9.470;2023-07-24T02:11:17;10.88;;;6.63;;
55270;SDS011;41132;47.162;9.470;2023-07-24T02:13:46;11.85;;;6.68;;
55270;SDS011;41132;47.162;9.470;2023-07-24T02:16:12;10.55;;;7.22;;
55270;SDS011;41132;47.162;9.470;2023-07-24T02:18:38;11.05;;;7.55;;
55270;SDS011;41132;47.162;9.470;2023-07-24T02:21:05;11.43;;;6.90;;
55270;SDS011;41132;47.162;9.470;2023-07-24T02:23:31;10.25;;;6.32;;
55270;SDS011;41132;47.162;9.470;2023-07-24T02:25:56;11.00;;;6.65;;
55270;SDS011;41132;47.162;9.470;2023-07-24T02:28:21;10.57;;;7.15;;
55270;SDS011;41132;47.162;9.470;2023-07-24T02:30:47;11.75;;;7.00;;
55270;SDS011;41132;47.162;9.470;2023-07-24T02:33:12;10.20;;;7.20;;
55270;SDS011;41132;47.162;9.470;2023-07-24T02:35:38;12.15;;;7.10;;
55270;SDS011;41132;47.162;9.470;2023-07-24T02:38:05;10.73;;;6.45;;
55270;SDS011;41132;47.162;9.470;2023-07-24T02:40:30;11.45;;;7.05;;
55270;SDS011;41132;47.162;9.470;2023-07-24T02:42:56;10.52;;;6.75;;
55270;SDS011;41132;47.162;9.470;2023-07-24T02:45:21;10.88;;;7.22;;
55270;SDS011;41132;47.162;9.470;2023-07-24T02:47:46;12.02;;;6.88;;
55270;SDS011;41132;47.162;9.470;2023-07-24T02:50:12;10.65;;;6.57;;
55270;SDS011;41132;47.162;9.470;2023-07-24T02:52:37;12.05;;;7.57;;
55270;SDS011;41132;47.162;9.470;2023-07-24T02:55:02;11.20;;;6.53;;
55270;SDS011;41132;47.162;9.470;2023-07-24T02:57:28;12.15;;;7.07;;
55270;SDS011;41132;47.162;9.470;2023-07-24T02:59:53;12.75;;;7.45;;
55270;SDS011;41132;47.162;9.470;2023-07-24T03:02:19;11.98;;;7.40;;
55270;SDS011;41132;47.162;9.470;2023-07-24T03:04:44;11.73;;;7.15;;
55270;SDS011;41132;47.162;9.470;2023-07-24T03:07:09;10.95;;;6.72;;
55270;SDS011;41132;47.162;9.470;2023-07-24T03:09:35;11.50;;;7.50;;
55270;SDS011;41132;47.162;9.470;2023-07-24T03:12:00;11.23;;;7.13;;
55270;SDS011;41132;47.162;9.470;2023-07-24T03:14:25;13.73;;;7.03;;
55270;SDS011;41132;47.162;9.470;2023-07-24T03:16:51;13.05;;;7.20;;
55270;SDS011;41132;47.162;9.470;2023-07-24T03:19:16;11.98;;;7.32;;
55270;SDS011;41132;47.162;9.470;2023-07-24T03:21:42;12.35;;;7.45;;
55270;SDS011;41132;47.162;9.470;2023-07-24T03:24:08;12.32;;;7.03;;
55270;SDS011;41132;47.162;9.470;2023-07-24T03:26:33;11.95;;;6.80;;
55270;SDS011;41132;47.162;9.470;2023-07-24T03:28:59;13.25;;;7.03;;
55270;SDS011;41132;47.162;9.470;2023-07-24T03:31:25;11.95;;;7.22;;
55270;SDS011;41132;47.162;9.470;2023-07-24T03:33:50;11.05;;;6.82;;
55270;SDS011;41132;47.162;9.470;2023-07-24T03:36:16;10.10;;;6.82;;
55270;SDS011;41132;47.162;9.470;2023-07-24T03:38:41;12.20;;;7.13;;
55270;SDS011;41132;47.162;9.470;2023-07-24T03:41:06;9.38;;;6.53;;
55270;SDS011;41132;47.162;9.470;2023-07-24T03:43:32;10.63;;;6.88;;
55270;SDS011;41132;47.162;9.470;2023-07-24T03:45:57;11.57;;;6.45;;
55270;SDS011;41132;47.162;9.470;2023-07-24T03:48:23;11.95;;;6.72;;
55270;SDS011;41132;47.162;9.470;2023-07-24T03:50:49;12.02;;;6.85;;
55270;SDS011;41132;47.162;9.470;2023-07-24T03:53:16;10.25;;;6.85;;
55270;SDS011;41132;47.162;9.470;2023-07-24T03:55:41;10.27;;;6.70;;
55270;SDS011;41132;47.162;9.470;2023-07-24T03:58:06;10.45;;;6.75;;
55270;SDS011;41132;47.162;9.470;2023-07-24T04:00:32;11.77;;;6.40;;
55270;SDS011;41132;47.162;9.470;2023-07-24T04:02:57;12.77;;;7.03;;
55270;SDS011;41132;47.162;9.470;2023-07-24T04:05:23;14.13;;;6.70;;
55270;SDS011;41132;47.162;9.470;2023-07-24T04:07:48;13.25;;;7.45;;
55270;SDS011;41132;47.162;9.470;2023-07-24T04:10:13;12.38;;;7.32;;
55270;SDS011;41132;47.162;9.470;2023-07-24T04:12:39;13.32;;;7.40;;
55270;SDS011;41132;47.162;9.470;2023-07-24T04:15:04;11.95;;;7.13;;
55270;SDS011;41132;47.162;9.470;2023-07-24T04:17:30;13.15;;;7.28;;
55270;SDS011;41132;47.162;9.470;2023-07-24T04:19:57;12.20;;;7.55;;
55270;SDS011;41132;47.162;9.470;2023-07-24T04:22:22;11.95;;;6.93;;
55270;SDS011;41132;47.162;9.470;2023-07-24T04:24:48;10.05;;;6.30;;
55270;SDS011;41132;47.162;9.470;2023-07-24T04:27:13;11.38;;;6.72;;
55270;SDS011;41132;47.162;9.470;2023-07-24T04:29:38;10.93;;;6.72;;
55270;SDS011;41132;47.162;9.470;2023-07-24T04:32:04;11.18;;;7.40;;
55270;SDS011;41132;47.162;9.470;2023-07-24T04:34:29;13.65;;;7.40;;
55270;SDS011;41132;47.162;9.470;2023-07-24T04:36:54;10.90;;;7.15;;
55270;SDS011;41132;47.162;9.470;2023-07-24T04:39:20;12.57;;;7.18;;
55270;SDS011;41132;47.162;9.470;2023-07-24T04:41:45;12.65;;;7.32;;
55270;SDS011;41132;47.162;9.470;2023-07-24T04:44:11;12.27;;;7.22;;
55270;SDS011;41132;47.162;9.470;2023-07-24T04:46:36;11.73;;;7.85;;
55270;SDS011;41132;47.162;9.470;2023-07-24T04:49:02;11.15;;;7.60;;
55270;SDS011;41132;47.162;9.470;2023-07-24T04:51:27;11.18;;;6.68;;
55270;SDS011;41132;47.162;9.470;2023-07-24T04:53:53;10.82;;;6.85;;
55270;SDS011;41132;47.162;9.470;2023-07-24T04:56:18;13.50;;;7.75;;
55270;SDS011;41132;47.162;9.470;2023-07-24T04:58:44;11.75;;;7.60;;
55270;SDS011;41132;47.162;9.470;2023-07-24T05:01:09;12.35;;;7.43;;
55270;SDS011;41132;47.162;9.470;2023-07-24T05:03:35;12.82;;;7.60;;
55270;SDS011;41132;47.162;9.470;2023-07-24T05:06:00;11.00;;;6.65;;
55270;SDS011;41132;47.162;9.470;2023-07-24T05:08:25;12.10;;;7.18;;
55270;SDS011;41132;47.162;9.470;2023-07-24T05:10:55;14.60;;;7.55;;
55270;SDS011;41132;47.162;9.470;2023-07-24T05:13:21;11.80;;;7.20;;
55270;SDS011;41132;47.162;9.470;2023-07-24T05:15:46;11.88;;;7.13;;
55270;SDS011;41132;47.162;9.470;2023-07-24T05:18:12;10.82;;;6.63;;
55270;SDS011;41132;47.162;9.470;2023-07-24T05:20:37;12.13;;;7.38;;
55270;SDS011;41132;47.162;9.470;2023-07-24T05:23:02;14.63;;;7.28;;
55270;SDS011;41132;47.162;9.470;2023-07-24T05:25:28;11.25;;;6.93;;
55270;SDS011;41132;47.162;9.470;2023-07-24T05:27:53;13.23;;;7.05;;
55270;SDS011;41132;47.162;9.470;2023-07-24T05:30:18;11.40;;;7.03;;
55270;SDS011;41132;47.162;9.470;2023-07-24T05:32:44;11.15;;;7.38;;
55270;SDS011;41132;47.162;9.470;2023-07-24T05:35:09;10.48;;;7.22;;
55270;SDS011;41132;47.162;9.470;2023-07-24T05:37:34;12.63;;;7.70;;
55270;SDS011;41132;47.162;9.470;2023-07-24T05:40:00;13.20;;;4.80;;
55270;SDS011;41132;47.162;9.470;2023-07-24T05:42:25;14.30;;;5.93;;
55270;SDS011;41132;47.162;9.470;2023-07-24T05:44:50;8.80;;;4.60;;
55270;SDS011;41132;47.162;9.470;2023-07-24T05:47:16;10.75;;;5.35;;
55270;SDS011;41132;47.162;9.470;2023-07-24T05:49:41;9.75;;;5.30;;
55270;SDS011;41132;47.162;9.470;2023-07-24T05:52:06;9.80;;;5.90;;
55270;SDS011;41132;47.162;9.470;2023-07-24T05:54:32;9.00;;;5.20;;
55270;SDS011;41132;47.162;9.470;2023-07-24T05:56:57;10.45;;;5.15;;
55270;SDS011;41132;47.162;9.470;2023-07-24T05:59:22;9.43;;;5.13;;
55270;SDS011;41132;47.162;9.470;2023-07-24T06:01:48;8.02;;;4.68;;
55270;SDS011;41132;47.162;9.470;2023-07-24T06:04:13;9.68;;;5.25;;
55270;SDS011;41132;47.162;9.470;2023-07-24T06:06:39;10.35;;;5.57;;
55270;SDS011;41132;47.162;9.470;2023-07-24T06:09:05;11.25;;;4.97;;
55270;SDS011;41132;47.162;9.470;2023-07-24T06:11:30;8.45;;;4.20;;
55270;SDS011;41132;47.162;9.470;2023-07-24T06:13:56;8.48;;;4.80;;
55270;SDS011;41132;47.162;9.470;2023-07-24T06:16:21;11.70;;;4.68;;
55270;SDS011;41132;47.162;9.470;2023-07-24T06:18:46;7.90;;;4.13;;
55270;SDS011;41132;47.162;9.470;2023-07-24T06:21:12;8.13;;;4.53;;
55270;SDS011;41132;47.162;9.470;2023-07-24T06:23:37;7.80;;;3.88;;
55270;SDS011;41132;47.162;9.470;2023-07-24T06:26:02;7.20;;;4.03;;
55270;SDS011;41132;47.162;9.470;2023-07-24T06:28:28;8.05;;;3.90;;
55270;SDS011;41132;47.162;9.470;2023-07-24T06:30:53;7.95;;;4.05;;
55270;SDS011;41132;47.162;9.470;2023-07-24T06:33:19;9.32;;;3.75;;
55270;SDS011;41132;47.162;9.470;2023-07-24T06:35:46;6.65;;;4.07;;
55270;SDS011;41132;47.162;9.470;2023-07-24T06:38:13;6.45;;;3.50;;
55270;SDS011;41132;47.162;9.470;2023-07-24T06:40:38;7.20;;;3.78;;
55270;SDS011;41132;47.162;9.470;2023-07-24T06:43:03;6.63;;;4.13;;
55270;SDS011;41132;47.162;9.470;2023-07-24T06:45:29;7.88;;;3.42;;
55270;SDS011;41132;47.162;9.470;2023-07-24T06:47:54;7.38;;;3.78;;
55270;SDS011;41132;47.162;9.470;2023-07-24T06:50:19;8.82;;;4.50;;
55270;SDS011;41132;47.162;9.470;2023-07-24T06:52:45;9.07;;;4.93;;
55270;SDS011;41132;47.162;9.470;2023-07-24T06:55:10;11.68;;;5.15;;
55270;SDS011;41132;47.162;9.470;2023-07-24T06:57:36;8.13;;;4.88;;
55270;SDS011;41132;47.162;9.470;2023-07-24T07:00:02;10.68;;;4.88;;
55270;SDS011;41132;47.162;9.470;2023-07-24T07:02:27;7.80;;;3.90;;
55270;SDS011;41132;47.162;9.470;2023-07-24T07:04:53;10.45;;;4.43;;
55270;SDS011;41132;47.162;9.470;2023-07-24T07:07:18;8.95;;;4.20;;
55270;SDS011;41132;47.162;9.470;2023-07-24T07:09:44;8.77;;;4.40;;
55270;SDS011;41132;47.162;9.470;2023-07-24T07:12:09;8.40;;;4.35;;
55270;SDS011;41132;47.162;9.470;2023-07-24T07:14:35;10.40;;;4.45;;
55270;SDS011;41132;47.162;9.470;2023-07-24T07:17:00;10.80;;;4.13;;
55270;SDS011;41132;47.162;9.470;2023-07-24T07:19:25;7.68;;;4.07;;
55270;SDS011;41132;47.162;9.470;2023-07-24T07:21:51;7.75;;;4.35;;
55270;SDS011;41132;47.162;9.470;2023-07-24T07:24:17;8.60;;;3.85;;
55270;SDS011;41132;47.162;9.470;2023-07-24T07:26:42;8.20;;;4.00;;
55270;SDS011;41132;47.162;9.470;2023-07-24T07:29:08;7.88;;;3.80;;
55270;SDS011;41132;47.162;9.470;2023-07-24T07:31:34;10.50;;;4.25;;
55270;SDS011;41132;47.162;9.470;2023-07-24T07:33:59;7.57;;;4.20;;
55270;SDS011;41132;47.162;9.470;2023-07-24T07:36:24;7.90;;;4.07;;
55270;SDS011;41132;47.162;9.470;2023-07-24T07:38:50;11.75;;;4.18;;
55270;SDS011;41132;47.162;9.470;2023-07-24T07:41:15;8.68;;;4.05;;
55270;SDS011;41132;47.162;9.470;2023-07-24T07:43:40;8.75;;;4.10;;
55270;SDS011;41132;47.162;9.470;2023-07-24T07:46:06;7.38;;;4.18;;
55270;SDS011;41132;47.162;9.470;2023-07-24T07:48:31;7.50;;;3.83;;
55270;SDS011;41132;47.162;9.470;2023-07-24T07:50:57;8.57;;;3.72;;
55270;SDS011;41132;47.162;9.470;2023-07-24T07:53:23;9.65;;;3.75;;
55270;SDS011;41132;47.162;9.470;2023-07-24T07:55:55;7.65;;;4.07;;
55270;SDS011;41132;47.162;9.470;2023-07-24T07:58:22;8.40;;;4.32;;
55270;SDS011;41132;47.162;9.470;2023-07-24T08:00:48;8.10;;;3.72;;
55270;SDS011;41132;47.162;9.470;2023-07-24T08:03:13;6.43;;;3.78;;
55270;SDS011;41132;47.162;9.470;2023-07-24T08:05:38;7.82;;;4.13;;
55270;SDS011;41132;47.162;9.470;2023-07-24T08:08:04;9.98;;;4.05;;
55270;SDS011;41132;47.162;9.470;2023-07-24T08:10:29;7.82;;;4.22;;
55270;SDS011;41132;47.162;9.470;2023-07-24T08:12:54;7.00;;;4.05;;
55270;SDS011;41132;47.162;9.470;2023-07-24T08:15:20;7.82;;;3.95;;
55270;SDS011;41132;47.162;9.470;2023-07-24T08:17:45;8.77;;;4.13;;
55270;SDS011;41132;47.162;9.470;2023-07-24T08:20:11;7.57;;;4.13;;
55270;SDS011;41132;47.162;9.470;2023-07-24T08:22:36;9.73;;;4.50;;
55270;SDS011;41132;47.162;9.470;2023-07-24T08:25:02;9.77;;;4.38;;
55270;SDS011;41132;47.162;9.470;2023-07-24T08:27:28;7.32;;;4.20;;
55270;SDS011;41132;47.162;9.470;2023-07-24T08:29:53;6.68;;;4.00;;
55270;SDS011;41132;47.162;9.470;2023-07-24T08:32:19;7.32;;;3.65;;
55270;SDS011;41132;47.162;9.470;2023-07-24T08:34:45;7.95;;;3.92;;
55270;SDS011;41132;47.162;9.470;2023-07-24T08:37:11;9.18;;;4.20;;
55270;SDS011;41132;47.162;9.470;2023-07-24T08:39:37;7.80;;;4.28;;
55270;SDS011;41132;47.162;9.470;2023-07-24T08:42:07;10.55;;;4.47;;
55270;SDS011;41132;47.162;9.470;2023-07-24T08:44:37;11.13;;;4.55;;
55270;SDS011;41132;47.162;9.470;2023-07-24T08:47:03;11.30;;;5.35;;
55270;SDS011;41132;47.162;9.470;2023-07-24T08:49:29;9.82;;;4.72;;
55270;SDS011;41132;47.162;9.470;2023-07-24T08:51:56;9.18;;;4.97;;
55270;SDS011;41132;47.162;9.470;2023-07-24T08:54:22;8.50;;;5.13;;
55270;SDS011;41132;47.162;9.470;2023-07-24T08:56:50;10.57;;;4.68;;
55270;SDS011;41132;47.162;9.470;2023-07-24T08:59:16;7.93;;;4.95;;
55270;SDS011;41132;47.162;9.470;2023-07-24T09:01:42;7.53;;;4.57;;
55270;SDS011;41132;47.162;9.470;2023-07-24T09:04:07;8.70;;;5.30;;
55270;SDS011;41132;47.162;9.470;2023-07-24T09:06:33;10.82;;;5.05;;
55270;SDS011;41132;47.162;9.470;2023-07-24T09:08:58;7.95;;;3.67;;
55270;SDS011;41132;47.162;9.470;2023-07-24T09:11:24;7.28;;;3.78;;
55270;SDS011;41132;47.162;9.470;2023-07-24T09:13:49;6.82;;;3.47;;
55270;SDS011;41132;47.162;9.470;2023-07-24T09:16:22;6.40;;;3.47;;
55270;SDS011;41132;47.162;9.470;2023-07-24T09:21:16;6.03;;;2.92;;
55270;SDS011;41132;47.162;9.470;2023-07-24T09:23:55;9.18;;;4.75;;
55270;SDS011;41132;47.162;9.470;2023-07-24T09:26:20;7.25;;;4.50;;
55270;SDS011;41132;47.162;9.470;2023-07-24T09:28:52;5.70;;;2.97;;
55270;SDS011;41132;47.162;9.470;2023-07-24T09:31:19;7.38;;;4.32;;
55270;SDS011;41132;47.162;9.470;2023-07-24T09:33:44;7.25;;;3.70;;
55270;SDS011;41132;47.162;9.470;2023-07-24T09:36:11;7.65;;;4.60;;
55270;SDS011;41132;47.162;9.470;2023-07-24T09:38:38;8.45;;;4.20;;
55270;SDS011;41132;47.162;9.470;2023-07-24T09:41:05;6.72;;;3.25;;
55270;SDS011;41132;47.162;9.470;2023-07-24T09:43:31;6.40;;;3.65;;
55270;SDS011;41132;47.162;9.470;2023-07-24T09:45:57;7.25;;;3.80;;
55270;SDS011;41132;47.162;9.470;2023-07-24T09:48:26;7.22;;;4.13;;
55270;SDS011;41132;47.162;9.470;2023-07-24T09:50:53;7.72;;;4.88;;
55270;SDS011;41132;47.162;9.470;2023-07-24T09:56:04;7.03;;;3.60;;
55270;SDS011;41132;47.162;9.470;2023-07-24T09:58:34;8.70;;;3.83;;
55270;SDS011;41132;47.162;9.470;2023-07-24T10:01:05;6.80;;;4.18;;
55270;SDS011;41132;47.162;9.470;2023-07-24T10:03:37;6.68;;;3.63;;
55270;SDS011;41132;47.162;9.470;2023-07-24T10:06:10;7.15;;;4.38;;
55270;SDS011;41132;47.162;9.470;2023-07-24T10:08:36;8.55;;;5.22;;
55270;SDS011;41132;47.162;9.470;2023-07-24T10:11:03;6.95;;;4.10;;
55270;SDS011;41132;47.162;9.470;2023-07-24T10:13:29;7.50;;;4.05;;
55270;SDS011;41132;47.162;9.470;2023-07-24T10:15:55;7.32;;;3.92;;
55270;SDS011;41132;47.162;9.470;2023-07-24T10:18:25;7.35;;;3.65;;
55270;SDS011;41132;47.162;9.470;2023-07-24T10:21:01;6.72;;;3.60;;
55270;SDS011;41132;47.162;9.470;2023-07-24T10:23:29;6.55;;;3.90;;
55270;SDS011;41132;47.162;9.470;2023-07-24T10:25:54;7.20;;;3.55;;
55270;SDS011;41132;47.162;9.470;2023-07-24T10:28:29;6.90;;;4.30;;
55270;SDS011;41132;47.162;9.470;2023-07-24T10:30:56;8.10;;;4.03;;
55270;SDS011;41132;47.162;9.470;2023-07-24T10:33:22;7.70;;;3.92;;
55270;SDS011;41132;47.162;9.470;2023-07-24T10:35:49;7.20;;;4.13;;
55270;SDS011;41132;47.162;9.470;2023-07-24T10:38:18;7.40;;;3.97;;
55270;SDS011;41132;47.162;9.470;2023-07-24T10:40:45;6.45;;;3.85;;
55270;SDS011;41132;47.162;9.470;2023-07-24T10:43:13;6.43;;;3.92;;
55270;SDS011;41132;47.162;9.470;2023-07-24T10:48:13;7.80;;;4.85;;
55270;SDS011;41132;47.162;9.470;2023-07-24T10:50:40;10.38;;;4.30;;
55270;SDS011;41132;47.162;9.470;2023-07-24T10:53:08;6.97;;;3.85;;
55270;SDS011;41132;47.162;9.470;2023-07-24T10:55:34;7.18;;;3.88;;
55270;SDS011;41132;47.162;9.470;2023-07-24T10:57:59;7.38;;;3.88;;
55270;SDS011;41132;47.162;9.470;2023-07-24T11:00:25;8.60;;;4.32;;
55270;SDS011;41132;47.162;9.470;2023-07-24T11:02:52;7.60;;;3.83;;
55270;SDS011;41132;47.162;9.470;2023-07-24T11:05:21;7.72;;;4.20;;
55270;SDS011;41132;47.162;9.470;2023-07-24T11:07:48;9.30;;;3.67;;
55270;SDS011;41132;47.162;9.470;2023-07-24T11:10:14;7.07;;;3.35;;
55270;SDS011;41132;47.162;9.470;2023-07-24T11:12:45;6.28;;;3.60;;
55270;SDS011;41132;47.162;9.470;2023-07-24T11:15:11;6.25;;;3.05;;
55270;SDS011;41132;47.162;9.470;2023-07-24T11:17:37;6.00;;;2.90;;
55270;SDS011;41132;47.162;9.470;2023-07-24T11:22:32;8.82;;;3.60;;
55270;SDS011;41132;47.162;9.470;2023-07-24T11:24:58;6.72;;;3.15;;
55270;SDS011;41132;47.162;9.470;2023-07-24T11:27:24;6.10;;;2.90;;
55270;SDS011;41132;47.162;9.470;2023-07-24T11:29:50;6.35;;;3.22;;
55270;SDS011;41132;47.162;9.470;2023-07-24T11:32:19;6.18;;;3.38;;
55270;SDS011;41132;47.162;9.470;2023-07-24T11:34:45;6.10;;;3.35;;
55270;SDS011;41132;47.162;9.470;2023-07-24T11:37:13;7.43;;;4.05;;
55270;SDS011;41132;47.162;9.470;2023-07-24T11:39:38;7.43;;;4.07;;
55270;SDS011;41132;47.162;9.470;2023-07-24T11:42:04;7.22;;;4.15;;
55270;SDS011;41132;47.162;9.470;2023-07-24T11:44:30;6.47;;;3.25;;
55270;SDS011;41132;47.162;9.470;2023-07-24T11:47:05;6.38;;;3.45;;
55270;SDS011;41132;47.162;9.470;2023-07-24T11:49:31;7.78;;;3.80;;
55270;SDS011;41132;47.162;9.470;2023-07-24T11:52:01;6.38;;;3.55;;
55270;SDS011;41132;47.162;9.470;2023-07-24T11:54:33;6.28;;;2.85;;
55270;SDS011;41132;47.162;9.470;2023-07-24T11:57:00;8.15;;;3.70;;
55270;SDS011;41132;47.162;9.470;2023-07-24T11:59:25;7.88;;;3.53;;
55270;SDS011;41132;47.162;9.470;2023-07-24T12:01:51;6.60;;;3.28;;
55270;SDS011;41132;47.162;9.470;2023-07-24T12:04:17;6.25;;;3.25;;
55270;SDS011;41132;47.162;9.470;2023-07-24T12:06:43;6.80;;;3.60;;
55270;SDS011;41132;47.162;9.470;2023-07-24T12:09:08;7.15;;;3.30;;
55270;SDS011;41132;47.162;9.470;2023-07-24T12:11:43;6.35;;;3.40;;
55270;SDS011;41132;47.162;9.470;2023-07-24T12:14:09;8.60;;;4.13;;
55270;SDS011;41132;47.162;9.470;2023-07-24T12:16:35;7.00;;;4.00;;
55270;SDS011;41132;47.162;9.470;2023-07-24T12:19:01;12.23;;;4.28;;
55270;SDS011;41132;47.162;9.470;2023-07-24T12:21:26;7.82;;;4.68;;
55270;SDS011;41132;47.162;9.470;2023-07-24T12:23:52;7.22;;;4.18;;
55270;SDS011;41132;47.162;9.470;2023-07-24T12:26:17;7.95;;;4.22;;
55270;SDS011;41132;47.162;9.470;2023-07-24T12:28:42;6.72;;;3.67;;
55270;SDS011;41132;47.162;9.470;2023-07-24T12:31:08;7.80;;;4.10;;
55270;SDS011;41132;47.162;9.470;2023-07-24T12:33:33;7.45;;;3.88;;
55270;SDS011;41132;47.162;9.470;2023-07-24T12:35:59;7.30;;;3.95;;
55270;SDS011;41132;47.162;9.470;2023-07-24T12:38:24;7.60;;;3.97;;
55270;SDS011;41132;47.162;9.470;2023-07-24T12:40:50;7.68;;;4.03;;
55270;SDS011;41132;47.162;9.470;2023-07-24T12:43:15;7.20;;;3.70;;
55270;SDS011;41132;47.162;9.470;2023-07-24T12:45:40;7.30;;;3.70;;
55270;SDS011;41132;47.162;9.470;2023-07-24T12:48:06;8.95;;;3.83;;
55270;SDS011;41132;47.162;9.470;2023-07-24T12:50:33;9.40;;;4.22;;
55270;SDS011;41132;47.162;9.470;2023-07-24T12:52:58;7.22;;;3.47;;
55270;SDS011;41132;47.162;9.470;2023-07-24T12:55:24;7.95;;;4.63;;
55270;SDS011;41132;47.162;9.470;2023-07-24T12:57:49;8.35;;;4.00;;
55270;SDS011;41132;47.162;9.470;2023-07-24T13:00:14;7.95;;;3.88;;
55270;SDS011;41132;47.162;9.470;2023-07-24T13:02:40;8.90;;;4.05;;
55270;SDS011;41132;47.162;9.470;2023-07-24T13:05:06;7.80;;;3.72;;
55270;SDS011;41132;47.162;9.470;2023-07-24T13:07:31;7.32;;;3.92;;
55270;SDS011;41132;47.162;9.470;2023-07-24T13:09:57;5.85;;;3.50;;
55270;SDS011;41132;47.162;9.470;2023-07-24T13:12:22;6.82;;;3.55;;
55270;SDS011;41132;47.162;9.470;2023-07-24T13:14:47;6.55;;;3.40;;
55270;SDS011;41132;47.162;9.470;2023-07-24T13:17:13;7.10;;;3.70;;
55270;SDS011;41132;47.162;9.470;2023-07-24T13:19:38;7.35;;;3.80;;
55270;SDS011;41132;47.162;9.470;2023-07-24T13:22:03;8.07;;;3.90;;
55270;SDS011;41132;47.162;9.470;2023-07-24T13:24:29;7.03;;;3.90;;
55270;SDS011;41132;47.162;9.470;2023-07-24T13:26:55;6.57;;;3.42;;
55270;SDS011;41132;47.162;9.470;2023-07-24T13:29:20;7.53;;;3.60;;
55270;SDS011;41132;47.162;9.470;2023-07-24T13:31:45;7.65;;;3.92;;
55270;SDS011;41132;47.162;9.470;2023-07-24T13:34:11;7.95;;;4.03;;
55270;SDS011;41132;47.162;9.470;2023-07-24T13:36:36;8.43;;;4.20;;
55270;SDS011;41132;47.162;9.470;2023-07-24T13:39:02;6.82;;;3.55;;
55270;SDS011;41132;47.162;9.470;2023-07-24T13:41:28;8.55;;;3.92;;
55270;SDS011;41132;47.162;9.470;2023-07-24T13:43:53;8.48;;;3.90;;
55270;SDS011;41132;47.162;9.470;2023-07-24T13:46:18;6.72;;;3.45;;
55270;SDS011;41132;47.162;9.470;2023-07-24T13:48:44;9.48;;;4.10;;
55270;SDS011;41132;47.162;9.470;2023-07-24T13:51:09;9.43;;;4.22;;
55270;SDS011;41132;47.162;9.470;2023-07-24T13:53:35;6.88;;;3.30;;
55270;SDS011;41132;47.162;9.470;2023-07-24T13:56:01;6.75;;;3.83;;
55270;SDS011;41132;47.162;9.470;2023-07-24T13:58:27;6.15;;;3.38;;
55270;SDS011;41132;47.162;9.470;2023-07-24T14:00:52;6.22;;;3.50;;
55270;SDS011;41132;47.162;9.470;2023-07-24T14:03:17;7.65;;;3.70;;
55270;SDS011;41132;47.162;9.470;2023-07-24T14:05:43;7.13;;;3.35;;
55270;SDS011;41132;47.162;9.470;2023-07-24T14:08:08;6.75;;;3.88;;
55270;SDS011;41132;47.162;9.470;2023-07-24T14:10:34;7.43;;;3.58;;
55270;SDS011;41132;47.162;9.470;2023-07-24T14:12:59;6.07;;;2.78;;
55270;SDS011;41132;47.162;9.470;2023-07-24T14:15:25;7.72;;;3.65;;
55270;SDS011;41132;47.162;9.470;2023-07-24T14:17:50;8.45;;;3.85;;
55270;SDS011;41132;47.162;9.470;2023-07-24T14:20:15;6.55;;;3.30;;
55270;SDS011;41132;47.162;9.470;2023-07-24T14:22:41;7.18;;;3.80;;
55270;SDS011;41132;47.162;9.470;2023-07-24T14:25:07;6.05;;;3.03;;
55270;SDS011;41132;47.162;9.470;2023-07-24T14:27:32;8.48;;;3.92;;
55270;SDS011;41132;47.162;9.470;2023-07-24T14:29:57;6.70;;;3.50;;
55270;SDS011;41132;47.162;9.470;2023-07-24T14:32:23;8.68;;;4.03;;
55270;SDS011;41132;47.162;9.470;2023-07-24T14:34:52;9.43;;;4.30;;
55270;SDS011;41132;47.162;9.470;2023-07-24T14:37:18;6.53;;;3.45;;
55270;SDS011;41132;47.162;9.470;2023-07-24T14:39:44;6.07;;;3.35;;
55270;SDS011;41132;47.162;9.470;2023-07-24T14:42:09;7.32;;;3.70;;
55270;SDS011;41132;47.162;9.470;2023-07-24T14:44:36;7.03;;;3.78;;
55270;SDS011;41132;47.162;9.470;2023-07-24T14:47:01;6.95;;;3.58;;
55270;SDS011;41132;47.162;9.470;2023-07-24T14:49:27;7.88;;;3.80;;
55270;SDS011;41132;47.162;9.470;2023-07-24T14:51:52;8.95;;;3.88;;